sensor_id;sensor_type;location;lat;lon;timestamp;noise_LAeq;noise_LA_min;noise_LA_max;noise_LA01;noise_LA95
70454;Laerm;57915;47.174;14.680;2023-03-31T00:00:50;52.40;50.42;62.43;;
70454;Laerm;57915;47.174;14.680;2023-03-31T00:01:51;51.13;49.97;53.92;;
70454;Laerm;57915;47.174;14.680;2023-03-31T00:02:53;51.14;50.51;52.94;;
70454;Laerm;57915;47.174;14.680;2023-03-31T00:03:55;51.07;50.40;52.42;;
70454;Laerm;57915;47.174;14.680;2023-03-31T00:05:05;58.30;50.56;71.21;;
70454;Laerm;57915;47.174;14.680;2023-03-31T00:06:08;51.10;50.49;53.69;;
70454;Laerm;57915;47.174;14.680;2023-03-31T00:07:11;51.02;50.51;51.74;;
70454;Laerm;57915;47.174;14.680;2023-03-31T00:08:12;51.04;50.34;51.55;;
70454;Laerm;57915;47.174;14.680;2023-03-31T00:09:14;51.06;50.24;51.97;;
70454;Laerm;57915;47.174;14.680;2023-03-31T00:10:15;51.09;50.23;52.28;;
70454;Laerm;57915;47.174;14.680;2023-03-31T00:11:18;56.18;50.54;66.76;;
70454;Laerm;57915;47.174;14.680;2023-03-31T00:12:18;51.28;50.43;55.71;;
70454;Laerm;57915;47.174;14.680;2023-03-31T00:13:20;51.12;50.50;51.71;;
70454;Laerm;57915;47.174;14.680;2023-03-31T00:14:21;51.10;49.81;51.93;;
70454;Laerm;57915;47.174;14.680;2023-03-31T00:15:22;51.03;50.38;51.68;;
70454;Laerm;57915;47.174;14.680;2023-03-31T00:16:23;51.09;50.52;54.55;;
70454;Laerm;57915;47.174;14.680;2023-03-31T00:17:24;51.62;50.75;52.78;;
70454;Laerm;57915;47.174;14.680;2023-03-31T00:18:25;51.21;50.55;52.16;;
70454;Laerm;57915;47.174;14.680;2023-03-31T00:19:26;51.01;50.47;51.63;;
70454;Laerm;57915;47.174;14.680;2023-03-31T00:20:29;50.97;50.41;51.52;;
70454;Laerm;57915;47.174;14.680;2023-03-31T00:21:32;51.07;50.49;51.76;;
70454;Laerm;57915;47.174;14.680;2023-03-31T00:22:32;51.06;50.44;51.68;;
70454;Laerm;57915;47.174;14.680;2023-03-31T00:23:37;51.23;50.54;52.20;;
70454;Laerm;57915;47.174;14.680;2023-03-31T00:24:37;51.00;50.42;51.67;;
70454;Laerm;57915;47.174;14.680;2023-03-31T00:25:39;51.04;50.42;51.91;;
70454;Laerm;57915;47.174;14.680;2023-03-31T00:26:40;50.93;50.26;51.80;;
70454;Laerm;57915;47.174;14.680;2023-03-31T00:27:41;50.93;50.37;51.52;;
70454;Laerm;57915;47.174;14.680;2023-03-31T00:28:43;50.99;50.32;51.50;;
70454;Laerm;57915;47.174;14.680;2023-03-31T00:29:44;51.02;50.39;51.87;;
70454;Laerm;57915;47.174;14.680;2023-03-31T00:30:45;51.03;50.37;52.62;;
70454;Laerm;57915;47.174;14.680;2023-03-31T00:31:47;50.91;50.32;51.60;;
70454;Laerm;57915;47.174;14.680;2023-03-31T00:32:48;52.25;50.39;61.50;;
70454;Laerm;57915;47.174;14.680;2023-03-31T00:33:49;62.15;50.22;75.64;;
70454;Laerm;57915;47.174;14.680;2023-03-31T00:34:51;50.84;50.12;51.94;;
70454;Laerm;57915;47.174;14.680;2023-03-31T00:35:53;50.88;50.32;51.55;;
70454;Laerm;57915;47.174;14.680;2023-03-31T00:36:54;50.98;50.29;53.80;;
70454;Laerm;57915;47.174;14.680;2023-03-31T00:37:56;50.81;50.18;51.56;;
70454;Laerm;57915;47.174;14.680;2023-03-31T00:38:59;50.80;50.22;53.01;;
70454;Laerm;57915;47.174;14.680;2023-03-31T00:40:01;50.82;50.18;51.56;;
70454;Laerm;57915;47.174;14.680;2023-03-31T00:41:08;50.82;50.08;51.62;;
70454;Laerm;57915;47.174;14.680;2023-03-31T00:42:09;50.83;50.15;51.67;;
70454;Laerm;57915;47.174;14.680;2023-03-31T00:43:26;50.86;50.20;51.59;;
70454;Laerm;57915;47.174;14.680;2023-03-31T00:44:28;51.01;50.24;52.11;;
70454;Laerm;57915;47.174;14.680;2023-03-31T00:45:32;50.87;50.01;51.94;;
70454;Laerm;57915;47.174;14.680;2023-03-31T00:46:33;50.82;50.14;51.54;;
70454;Laerm;57915;47.174;14.680;2023-03-31T00:47:36;58.49;50.27;70.74;;
70454;Laerm;57915;47.174;14.680;2023-03-31T00:48:37;51.02;50.17;52.24;;
70454;Laerm;57915;47.174;14.680;2023-03-31T00:49:39;53.75;51.05;59.11;;
70454;Laerm;57915;47.174;14.680;2023-03-31T00:50:42;58.18;50.32;70.22;;
70454;Laerm;57915;47.174;14.680;2023-03-31T00:51:49;50.97;50.29;51.83;;
70454;Laerm;57915;47.174;14.680;2023-03-31T00:52:53;50.95;50.28;52.09;;
70454;Laerm;57915;47.174;14.680;2023-03-31T00:53:56;50.91;50.23;51.72;;
70454;Laerm;57915;47.174;14.680;2023-03-31T00:54:59;50.89;50.15;51.78;;
70454;Laerm;57915;47.174;14.680;2023-03-31T00:56:05;50.82;50.17;51.44;;
70454;Laerm;57915;47.174;14.680;2023-03-31T00:57:07;50.93;50.24;51.75;;
70454;Laerm;57915;47.174;14.680;2023-03-31T00:58:09;51.02;50.27;52.15;;
70454;Laerm;57915;47.174;14.680;2023-03-31T00:59:13;52.25;50.36;56.24;;
70454;Laerm;57915;47.174;14.680;2023-03-31T01:00:15;51.08;50.13;52.28;;
70454;Laerm;57915;47.174;14.680;2023-03-31T01:01:17;50.77;50.05;52.42;;
70454;Laerm;57915;47.174;14.680;2023-03-31T01:02:18;51.04;50.20;53.30;;
70454;Laerm;57915;47.174;14.680;2023-03-31T01:03:19;51.20;50.26;52.32;;
70454;Laerm;57915;47.174;14.680;2023-03-31T01:04:21;50.91;50.03;51.79;;
70454;Laerm;57915;47.174;14.680;2023-03-31T01:05:23;50.96;50.31;52.16;;
70454;Laerm;57915;47.174;14.680;2023-03-31T01:06:26;51.22;50.27;53.61;;
70454;Laerm;57915;47.174;14.680;2023-03-31T01:07:31;50.99;49.90;53.04;;
70454;Laerm;57915;47.174;14.680;2023-03-31T01:08:35;50.87;50.18;51.69;;
70454;Laerm;57915;47.174;14.680;2023-03-31T01:09:36;51.01;50.24;52.04;;
70454;Laerm;57915;47.174;14.680;2023-03-31T01:10:39;50.86;50.28;51.58;;
70454;Laerm;57915;47.174;14.680;2023-03-31T01:11:41;51.15;50.18;52.28;;
70454;Laerm;57915;47.174;14.680;2023-03-31T01:12:45;52.17;50.49;54.92;;
70454;Laerm;57915;47.174;14.680;2023-03-31T01:13:48;51.17;50.23;52.78;;
70454;Laerm;57915;47.174;14.680;2023-03-31T01:14:51;50.85;50.14;53.35;;
70454;Laerm;57915;47.174;14.680;2023-03-31T01:15:52;51.08;50.15;52.35;;
70454;Laerm;57915;47.174;14.680;2023-03-31T01:16:54;51.10;50.10;52.35;;
70454;Laerm;57915;47.174;14.680;2023-03-31T01:17:55;51.13;50.16;54.16;;
70454;Laerm;57915;47.174;14.680;2023-03-31T01:18:56;51.04;50.13;58.74;;
70454;Laerm;57915;47.174;14.680;2023-03-31T01:20:02;50.67;49.98;52.36;;
70454;Laerm;57915;47.174;14.680;2023-03-31T01:22:42;55.20;50.03;66.45;;
70454;Laerm;57915;47.174;14.680;2023-03-31T01:23:52;53.23;50.47;62.33;;
70454;Laerm;57915;47.174;14.680;2023-03-31T01:25:05;50.99;50.15;52.92;;
70454;Laerm;57915;47.174;14.680;2023-03-31T01:27:31;57.62;49.88;71.23;;
70454;Laerm;57915;47.174;14.680;2023-03-31T01:28:37;50.85;50.12;52.06;;
70454;Laerm;57915;47.174;14.680;2023-03-31T01:29:57;50.97;50.12;52.19;;
70454;Laerm;57915;47.174;14.680;2023-03-31T01:32:46;51.64;50.13;58.93;;
70454;Laerm;57915;47.174;14.680;2023-03-31T01:37:58;51.07;50.13;53.56;;
70454;Laerm;57915;47.174;14.680;2023-03-31T01:39:20;50.87;50.14;52.74;;
70454;Laerm;57915;47.174;14.680;2023-03-31T01:40:41;50.77;50.00;53.13;;
70454;Laerm;57915;47.174;14.680;2023-03-31T01:41:47;59.44;50.21;71.42;;
70454;Laerm;57915;47.174;14.680;2023-03-31T01:42:51;50.90;50.12;52.24;;
70454;Laerm;57915;47.174;14.680;2023-03-31T01:43:54;50.76;49.85;51.97;;
70454;Laerm;57915;47.174;14.680;2023-03-31T01:45:01;50.83;49.95;53.11;;
70454;Laerm;57915;47.174;14.680;2023-03-31T01:46:08;56.26;50.34;67.23;;
70454;Laerm;57915;47.174;14.680;2023-03-31T01:47:13;50.92;49.96;55.45;;
70454;Laerm;57915;47.174;14.680;2023-03-31T01:48:18;62.14;50.11;74.29;;
70454;Laerm;57915;47.174;14.680;2023-03-31T01:49:23;50.74;50.05;51.85;;
70454;Laerm;57915;47.174;14.680;2023-03-31T01:50:26;51.52;50.10;58.03;;
70454;Laerm;57915;47.174;14.680;2023-03-31T01:51:31;52.27;50.15;59.78;;
70454;Laerm;57915;47.174;14.680;2023-03-31T01:52:34;50.84;50.10;54.58;;
70454;Laerm;57915;47.174;14.680;2023-03-31T01:53:41;50.56;49.85;51.65;;
70454;Laerm;57915;47.174;14.680;2023-03-31T01:54:45;50.44;49.86;54.49;;
70454;Laerm;57915;47.174;14.680;2023-03-31T01:55:51;50.53;49.85;54.25;;
70454;Laerm;57915;47.174;14.680;2023-03-31T01:56:57;50.42;49.80;51.05;;
70454;Laerm;57915;47.174;14.680;2023-03-31T01:58:02;50.74;49.92;54.61;;
70454;Laerm;57915;47.174;14.680;2023-03-31T01:59:06;50.70;50.02;51.66;;
70454;Laerm;57915;47.174;14.680;2023-03-31T02:00:11;50.61;49.79;54.08;;
70454;Laerm;57915;47.174;14.680;2023-03-31T02:01:13;50.61;49.62;53.94;;
70454;Laerm;57915;47.174;14.680;2023-03-31T02:02:19;50.40;49.62;51.31;;
70454;Laerm;57915;47.174;14.680;2023-03-31T02:03:21;50.28;49.57;52.88;;
70454;Laerm;57915;47.174;14.680;2023-03-31T02:04:26;50.34;49.65;55.07;;
70454;Laerm;57915;47.174;14.680;2023-03-31T02:05:29;50.58;49.65;54.34;;
70454;Laerm;57915;47.174;14.680;2023-03-31T02:06:34;54.50;49.46;67.82;;
70454;Laerm;57915;47.174;14.680;2023-03-31T02:07:37;52.79;49.79;61.68;;
70454;Laerm;57915;47.174;14.680;2023-03-31T02:08:40;56.09;49.91;66.06;;
70454;Laerm;57915;47.174;14.680;2023-03-31T02:09:43;50.60;49.68;52.30;;
70454;Laerm;57915;47.174;14.680;2023-03-31T02:10:45;50.43;49.66;51.51;;
70454;Laerm;57915;47.174;14.680;2023-03-31T02:11:48;60.37;50.01;70.95;;
70454;Laerm;57915;47.174;14.680;2023-03-31T02:12:52;61.77;49.17;73.76;;
70454;Laerm;57915;47.174;14.680;2023-03-31T02:13:53;50.54;49.61;52.89;;
70454;Laerm;57915;47.174;14.680;2023-03-31T02:14:56;51.94;50.01;62.39;;
70454;Laerm;57915;47.174;14.680;2023-03-31T02:15:59;55.28;50.16;66.53;;
70454;Laerm;57915;47.174;14.680;2023-03-31T02:17:02;50.79;49.79;54.62;;
70454;Laerm;57915;47.174;14.680;2023-03-31T02:18:04;51.10;49.90;53.38;;
70454;Laerm;57915;47.174;14.680;2023-03-31T02:19:10;56.77;49.75;67.85;;
70454;Laerm;57915;47.174;14.680;2023-03-31T02:20:13;60.30;49.65;71.47;;
70454;Laerm;57915;47.174;14.680;2023-03-31T02:21:15;51.27;49.90;58.79;;
70454;Laerm;57915;47.174;14.680;2023-03-31T02:22:17;53.01;50.06;63.11;;
70454;Laerm;57915;47.174;14.680;2023-03-31T02:23:21;51.04;50.00;53.65;;
70454;Laerm;57915;47.174;14.680;2023-03-31T02:24:25;50.88;49.89;52.65;;
70454;Laerm;57915;47.174;14.680;2023-03-31T02:25:28;61.07;50.19;74.62;;
70454;Laerm;57915;47.174;14.680;2023-03-31T02:26:34;50.83;49.86;52.19;;
70454;Laerm;57915;47.174;14.680;2023-03-31T02:27:37;62.92;50.05;74.97;;
70454;Laerm;57915;47.174;14.680;2023-03-31T02:28:39;51.05;49.92;54.18;;
70454;Laerm;57915;47.174;14.680;2023-03-31T02:29:40;50.64;49.67;55.73;;
70454;Laerm;57915;47.174;14.680;2023-03-31T02:30:44;59.05;49.63;70.97;;
70454;Laerm;57915;47.174;14.680;2023-03-31T02:31:45;60.14;49.87;72.69;;
70454;Laerm;57915;47.174;14.680;2023-03-31T02:32:47;57.89;49.97;70.47;;
70454;Laerm;57915;47.174;14.680;2023-03-31T02:33:48;58.22;50.32;69.28;;
70454;Laerm;57915;47.174;14.680;2023-03-31T02:34:50;62.20;50.74;73.63;;
70454;Laerm;57915;47.174;14.680;2023-03-31T02:35:50;51.08;49.92;54.65;;
70454;Laerm;57915;47.174;14.680;2023-03-31T02:36:52;58.64;49.82;71.56;;
70454;Laerm;57915;47.174;14.680;2023-03-31T02:37:53;60.94;49.90;69.60;;
70454;Laerm;57915;47.174;14.680;2023-03-31T02:38:55;52.21;49.80;66.61;;
70454;Laerm;57915;47.174;14.680;2023-03-31T02:39:59;50.88;49.84;56.09;;
70454;Laerm;57915;47.174;14.680;2023-03-31T02:41:01;51.61;50.09;58.94;;
70454;Laerm;57915;47.174;14.680;2023-03-31T02:42:02;53.40;50.01;61.77;;
70454;Laerm;57915;47.174;14.680;2023-03-31T02:43:07;50.62;49.80;52.54;;
70454;Laerm;57915;47.174;14.680;2023-03-31T02:44:08;59.22;49.82;71.21;;
70454;Laerm;57915;47.174;14.680;2023-03-31T02:46:25;54.15;49.90;64.66;;
70454;Laerm;57915;47.174;14.680;2023-03-31T02:47:27;58.12;49.97;70.24;;
70454;Laerm;57915;47.174;14.680;2023-03-31T02:48:28;56.11;49.90;66.54;;
70454;Laerm;57915;47.174;14.680;2023-03-31T02:49:31;58.35;50.28;69.16;;
70454;Laerm;57915;47.174;14.680;2023-03-31T02:50:33;51.33;50.17;54.76;;
70454;Laerm;57915;47.174;14.680;2023-03-31T02:51:44;51.20;50.24;52.83;;
70454;Laerm;57915;47.174;14.680;2023-03-31T02:52:49;56.95;50.27;69.14;;
70454;Laerm;57915;47.174;14.680;2023-03-31T02:53:58;54.67;49.95;65.50;;
70454;Laerm;57915;47.174;14.680;2023-03-31T02:55:09;51.32;50.22;53.23;;
70454;Laerm;57915;47.174;14.680;2023-03-31T02:56:23;51.22;50.25;53.71;;
70454;Laerm;57915;47.174;14.680;2023-03-31T02:57:34;58.71;50.27;69.76;;
70454;Laerm;57915;47.174;14.680;2023-03-31T02:58:50;57.63;50.22;69.47;;
70454;Laerm;57915;47.174;14.680;2023-03-31T03:00:00;50.94;50.11;52.88;;
70454;Laerm;57915;47.174;14.680;2023-03-31T03:01:10;59.73;50.12;73.63;;
70454;Laerm;57915;47.174;14.680;2023-03-31T03:02:14;59.04;50.57;68.60;;
70454;Laerm;57915;47.174;14.680;2023-03-31T03:03:21;51.47;50.16;61.43;;
70454;Laerm;57915;47.174;14.680;2023-03-31T03:04:32;52.38;50.20;65.67;;
70454;Laerm;57915;47.174;14.680;2023-03-31T03:05:37;60.09;50.11;70.38;;
70454;Laerm;57915;47.174;14.680;2023-03-31T03:06:41;60.16;50.02;71.78;;
70454;Laerm;57915;47.174;14.680;2023-03-31T03:07:54;56.94;50.38;68.86;;
70454;Laerm;57915;47.174;14.680;2023-03-31T03:09:03;60.18;50.49;71.23;;
70454;Laerm;57915;47.174;14.680;2023-03-31T03:10:08;57.96;50.41;69.33;;
70454;Laerm;57915;47.174;14.680;2023-03-31T03:11:11;51.76;50.18;60.77;;
70454;Laerm;57915;47.174;14.680;2023-03-31T03:12:18;56.77;50.54;67.67;;
70454;Laerm;57915;47.174;14.680;2023-03-31T03:13:21;62.09;51.81;70.56;;
70454;Laerm;57915;47.174;14.680;2023-03-31T03:14:28;61.72;51.46;69.75;;
70454;Laerm;57915;47.174;14.680;2023-03-31T03:15:34;59.23;51.11;69.90;;
70454;Laerm;57915;47.174;14.680;2023-03-31T03:16:38;57.88;50.52;68.28;;
70454;Laerm;57915;47.174;14.680;2023-03-31T03:17:40;54.07;50.42;65.31;;
70454;Laerm;57915;47.174;14.680;2023-03-31T03:18:43;60.95;50.46;73.67;;
70454;Laerm;57915;47.174;14.680;2023-03-31T03:19:43;52.87;50.24;64.58;;
70454;Laerm;57915;47.174;14.680;2023-03-31T03:20:50;60.83;50.39;71.22;;
70454;Laerm;57915;47.174;14.680;2023-03-31T03:21:51;61.03;50.62;70.00;;
70454;Laerm;57915;47.174;14.680;2023-03-31T03:22:53;57.20;50.69;68.15;;
70454;Laerm;57915;47.174;14.680;2023-03-31T03:23:54;61.10;50.73;72.29;;
70454;Laerm;57915;47.174;14.680;2023-03-31T03:24:56;57.98;50.80;67.33;;
70454;Laerm;57915;47.174;14.680;2023-03-31T03:25:56;59.33;51.21;68.20;;
70454;Laerm;57915;47.174;14.680;2023-03-31T03:26:58;59.32;50.14;69.84;;
70454;Laerm;57915;47.174;14.680;2023-03-31T03:27:58;59.60;50.28;69.53;;
70454;Laerm;57915;47.174;14.680;2023-03-31T03:29:00;60.51;51.01;70.21;;
70454;Laerm;57915;47.174;14.680;2023-03-31T03:30:02;53.27;50.50;64.85;;
70454;Laerm;57915;47.174;14.680;2023-03-31T03:31:04;53.78;50.05;65.18;;
70454;Laerm;57915;47.174;14.680;2023-03-31T03:32:05;53.60;49.93;67.82;;
70454;Laerm;57915;47.174;14.680;2023-03-31T03:33:06;60.98;50.43;72.78;;
70454;Laerm;57915;47.174;14.680;2023-03-31T03:34:07;62.05;51.09;70.34;;
70454;Laerm;57915;47.174;14.680;2023-03-31T03:35:09;60.93;50.24;71.16;;
70454;Laerm;57915;47.174;14.680;2023-03-31T03:36:10;63.07;50.95;73.31;;
70454;Laerm;57915;47.174;14.680;2023-03-31T03:37:11;56.80;50.40;67.64;;
70454;Laerm;57915;47.174;14.680;2023-03-31T03:38:12;63.56;51.05;73.25;;
70454;Laerm;57915;47.174;14.680;2023-03-31T03:39:13;60.82;50.61;70.34;;
70454;Laerm;57915;47.174;14.680;2023-03-31T03:40:14;62.63;50.69;71.49;;
70454;Laerm;57915;47.174;14.680;2023-03-31T03:41:15;61.67;52.11;69.23;;
70454;Laerm;57915;47.174;14.680;2023-03-31T03:42:18;57.29;50.91;68.28;;
70454;Laerm;57915;47.174;14.680;2023-03-31T03:43:20;61.08;50.89;69.35;;
70454;Laerm;57915;47.174;14.680;2023-03-31T03:44:20;56.79;51.29;66.00;;
70454;Laerm;57915;47.174;14.680;2023-03-31T03:45:23;63.06;50.65;72.50;;
70454;Laerm;57915;47.174;14.680;2023-03-31T03:46:24;61.94;52.00;71.53;;
70454;Laerm;57915;47.174;14.680;2023-03-31T03:47:25;61.92;50.99;71.87;;
70454;Laerm;57915;47.174;14.680;2023-03-31T03:48:26;60.16;51.00;71.49;;
70454;Laerm;57915;47.174;14.680;2023-03-31T03:49:27;57.36;51.10;67.90;;
70454;Laerm;57915;47.174;14.680;2023-03-31T03:50:28;54.57;51.14;65.44;;
70454;Laerm;57915;47.174;14.680;2023-03-31T03:51:30;54.06;50.79;68.47;;
70454;Laerm;57915;47.174;14.680;2023-03-31T03:52:30;60.14;50.52;69.05;;
70454;Laerm;57915;47.174;14.680;2023-03-31T03:53:31;57.85;50.55;72.00;;
70454;Laerm;57915;47.174;14.680;2023-03-31T03:54:32;59.72;51.17;71.15;;
70454;Laerm;57915;47.174;14.680;2023-03-31T03:55:33;59.53;51.64;68.31;;
70454;Laerm;57915;47.174;14.680;2023-03-31T03:56:34;60.80;51.01;70.86;;
70454;Laerm;57915;47.174;14.680;2023-03-31T03:57:36;59.94;50.66;70.67;;
70454;Laerm;57915;47.174;14.680;2023-03-31T03:58:36;58.33;51.53;70.99;;
70454;Laerm;57915;47.174;14.680;2023-03-31T03:59:38;60.79;50.98;71.24;;
70454;Laerm;57915;47.174;14.680;2023-03-31T04:00:39;58.61;50.91;69.20;;
70454;Laerm;57915;47.174;14.680;2023-03-31T04:01:41;59.47;50.76;71.01;;
70454;Laerm;57915;47.174;14.680;2023-03-31T04:02:41;55.65;51.03;66.52;;
70454;Laerm;57915;47.174;14.680;2023-03-31T04:03:43;60.48;50.94;71.74;;
70454;Laerm;57915;47.174;14.680;2023-03-31T04:04:44;58.85;51.02;70.77;;
70454;Laerm;57915;47.174;14.680;2023-03-31T04:05:46;61.85;52.06;70.86;;
70454;Laerm;57915;47.174;14.680;2023-03-31T04:06:49;58.39;51.19;68.70;;
70454;Laerm;57915;47.174;14.680;2023-03-31T04:07:50;57.79;51.16;70.15;;
70454;Laerm;57915;47.174;14.680;2023-03-31T04:08:51;59.38;51.59;68.85;;
70454;Laerm;57915;47.174;14.680;2023-03-31T04:09:52;60.15;51.07;71.74;;
70454;Laerm;57915;47.174;14.680;2023-03-31T04:10:53;60.75;51.34;69.57;;
70454;Laerm;57915;47.174;14.680;2023-03-31T04:11:54;59.04;51.01;69.44;;
70454;Laerm;57915;47.174;14.680;2023-03-31T04:12:55;60.03;51.77;68.48;;
70454;Laerm;57915;47.174;14.680;2023-03-31T04:13:56;58.87;51.16;70.04;;
70454;Laerm;57915;47.174;14.680;2023-03-31T04:14:57;61.22;51.57;72.85;;
70454;Laerm;57915;47.174;14.680;2023-03-31T04:16:00;59.29;51.28;71.93;;
70454;Laerm;57915;47.174;14.680;2023-03-31T04:17:00;59.69;50.71;69.96;;
70454;Laerm;57915;47.174;14.680;2023-03-31T04:18:02;58.59;51.48;68.30;;
70454;Laerm;57915;47.174;14.680;2023-03-31T04:19:03;64.23;52.21;71.16;;
70454;Laerm;57915;47.174;14.680;2023-03-31T04:20:06;61.21;51.11;73.79;;
70454;Laerm;57915;47.174;14.680;2023-03-31T04:21:09;58.13;50.97;68.67;;
70454;Laerm;57915;47.174;14.680;2023-03-31T04:22:11;62.25;50.82;73.52;;
70454;Laerm;57915;47.174;14.680;2023-03-31T04:23:14;60.99;51.07;73.66;;
70454;Laerm;57915;47.174;14.680;2023-03-31T04:24:17;62.45;51.31;74.93;;
70454;Laerm;57915;47.174;14.680;2023-03-31T04:25:21;59.58;52.04;69.24;;
70454;Laerm;57915;47.174;14.680;2023-03-31T04:26:21;56.31;51.17;67.19;;
70454;Laerm;57915;47.174;14.680;2023-03-31T04:27:30;62.22;51.75;70.73;;
70454;Laerm;57915;47.174;14.680;2023-03-31T04:28:32;59.95;51.15;70.26;;
70454;Laerm;57915;47.174;14.680;2023-03-31T04:29:34;59.43;50.95;73.15;;
70454;Laerm;57915;47.174;14.680;2023-03-31T04:30:36;60.23;51.30;69.83;;
70454;Laerm;57915;47.174;14.680;2023-03-31T04:31:40;67.29;51.51;78.71;;
70454;Laerm;57915;47.174;14.680;2023-03-31T04:32:41;62.10;51.30;71.42;;
70454;Laerm;57915;47.174;14.680;2023-03-31T04:33:43;60.74;51.64;72.28;;
70454;Laerm;57915;47.174;14.680;2023-03-31T04:34:45;52.71;51.09;55.20;;
70454;Laerm;57915;47.174;14.680;2023-03-31T04:35:47;59.59;51.26;69.59;;
70454;Laerm;57915;47.174;14.680;2023-03-31T04:36:48;53.41;51.26;56.59;;
70454;Laerm;57915;47.174;14.680;2023-03-31T04:37:50;58.26;51.24;68.04;;
70454;Laerm;57915;47.174;14.680;2023-03-31T04:38:58;62.26;51.35;72.39;;
70454;Laerm;57915;47.174;14.680;2023-03-31T04:40:00;62.71;51.66;73.73;;
70454;Laerm;57915;47.174;14.680;2023-03-31T04:41:08;61.32;51.90;71.77;;
70454;Laerm;57915;47.174;14.680;2023-03-31T04:42:10;55.40;51.04;65.90;;
70454;Laerm;57915;47.174;14.680;2023-03-31T04:43:10;62.76;52.24;71.62;;
70454;Laerm;57915;47.174;14.680;2023-03-31T04:44:12;62.50;52.07;71.78;;
70454;Laerm;57915;47.174;14.680;2023-03-31T04:45:12;59.96;51.30;70.58;;
70454;Laerm;57915;47.174;14.680;2023-03-31T04:46:14;59.01;51.63;67.79;;
70454;Laerm;57915;47.174;14.680;2023-03-31T04:47:16;62.53;52.35;70.44;;
70454;Laerm;57915;47.174;14.680;2023-03-31T04:48:17;62.54;52.08;70.94;;
70454;Laerm;57915;47.174;14.680;2023-03-31T04:49:18;54.47;51.09;66.76;;
70454;Laerm;57915;47.174;14.680;2023-03-31T04:50:19;56.93;51.81;65.89;;
70454;Laerm;57915;47.174;14.680;2023-03-31T04:51:20;53.80;51.43;59.86;;
70454;Laerm;57915;47.174;14.680;2023-03-31T04:52:21;63.80;53.24;71.31;;
70454;Laerm;57915;47.174;14.680;2023-03-31T04:53:22;62.62;52.53;72.14;;
70454;Laerm;57915;47.174;14.680;2023-03-31T04:54:23;57.20;51.57;67.23;;
70454;Laerm;57915;47.174;14.680;2023-03-31T04:55:24;60.14;52.01;70.71;;
70454;Laerm;57915;47.174;14.680;2023-03-31T04:56:26;59.33;50.88;72.65;;
70454;Laerm;57915;47.174;14.680;2023-03-31T04:57:26;58.64;51.13;70.40;;
70454;Laerm;57915;47.174;14.680;2023-03-31T04:58:28;60.70;51.52;69.71;;
70454;Laerm;57915;47.174;14.680;2023-03-31T04:59:28;56.08;50.85;65.09;;
70454;Laerm;57915;47.174;14.680;2023-03-31T05:00:30;59.64;51.79;69.35;;
70454;Laerm;57915;47.174;14.680;2023-03-31T05:01:30;60.52;51.41;69.09;;
70454;Laerm;57915;47.174;14.680;2023-03-31T05:02:36;61.73;51.48;71.79;;
70454;Laerm;57915;47.174;14.680;2023-03-31T05:03:37;63.78;53.29;70.53;;
70454;Laerm;57915;47.174;14.680;2023-03-31T05:04:38;60.36;51.48;69.95;;
70454;Laerm;57915;47.174;14.680;2023-03-31T05:05:39;58.92;51.00;68.99;;
70454;Laerm;57915;47.174;14.680;2023-03-31T05:06:40;60.14;50.92;71.26;;
70454;Laerm;57915;47.174;14.680;2023-03-31T05:07:42;62.07;51.70;70.10;;
70454;Laerm;57915;47.174;14.680;2023-03-31T05:08:42;59.72;51.42;69.34;;
70454;Laerm;57915;47.174;14.680;2023-03-31T05:09:44;64.91;51.60;71.94;;
70454;Laerm;57915;47.174;14.680;2023-03-31T05:10:44;59.02;52.47;67.21;;
70454;Laerm;57915;47.174;14.680;2023-03-31T05:11:46;61.09;51.92;71.60;;
70454;Laerm;57915;47.174;14.680;2023-03-31T05:12:47;63.75;52.37;74.50;;
70454;Laerm;57915;47.174;14.680;2023-03-31T05:13:48;64.19;52.88;72.48;;
70454;Laerm;57915;47.174;14.680;2023-03-31T05:14:52;61.23;51.50;69.24;;
70454;Laerm;57915;47.174;14.680;2023-03-31T05:15:53;65.37;58.02;72.48;;
70454;Laerm;57915;47.174;14.680;2023-03-31T05:16:54;65.06;52.37;73.03;;
70454;Laerm;57915;47.174;14.680;2023-03-31T05:17:58;59.04;51.63;68.10;;
70454;Laerm;57915;47.174;14.680;2023-03-31T05:18:59;62.75;52.19;70.52;;
70454;Laerm;57915;47.174;14.680;2023-03-31T05:20:01;62.64;52.76;70.23;;
70454;Laerm;57915;47.174;14.680;2023-03-31T05:21:11;64.11;54.03;71.39;;
70454;Laerm;57915;47.174;14.680;2023-03-31T05:22:13;64.77;54.67;76.43;;
70454;Laerm;57915;47.174;14.680;2023-03-31T05:23:13;61.33;52.36;68.94;;
70454;Laerm;57915;47.174;14.680;2023-03-31T05:24:15;65.33;53.83;74.16;;
70454;Laerm;57915;47.174;14.680;2023-03-31T05:25:15;64.43;57.48;71.83;;
70454;Laerm;57915;47.174;14.680;2023-03-31T05:26:18;64.23;52.89;73.91;;
70454;Laerm;57915;47.174;14.680;2023-03-31T05:27:19;64.15;51.85;72.73;;
70454;Laerm;57915;47.174;14.680;2023-03-31T05:28:21;57.87;51.12;66.75;;
70454;Laerm;57915;47.174;14.680;2023-03-31T05:29:21;61.30;52.67;68.83;;
70454;Laerm;57915;47.174;14.680;2023-03-31T05:30:23;66.94;59.32;74.49;;
70454;Laerm;57915;47.174;14.680;2023-03-31T05:31:25;65.18;54.96;72.39;;
70454;Laerm;57915;47.174;14.680;2023-03-31T05:32:27;60.33;53.25;67.58;;
70454;Laerm;57915;47.174;14.680;2023-03-31T05:33:29;60.21;51.95;68.48;;
70454;Laerm;57915;47.174;14.680;2023-03-31T05:34:31;61.30;51.43;72.14;;
70454;Laerm;57915;47.174;14.680;2023-03-31T05:35:31;68.13;53.29;77.79;;
70454;Laerm;57915;47.174;14.680;2023-03-31T05:36:32;63.87;53.62;69.54;;
70454;Laerm;57915;47.174;14.680;2023-03-31T05:37:34;65.37;54.64;72.87;;
70454;Laerm;57915;47.174;14.680;2023-03-31T05:38:35;65.95;51.68;73.10;;
70454;Laerm;57915;47.174;14.680;2023-03-31T05:39:36;64.07;52.02;71.27;;
70454;Laerm;57915;47.174;14.680;2023-03-31T05:40:37;67.88;55.46;75.04;;
70454;Laerm;57915;47.174;14.680;2023-03-31T05:41:38;59.55;52.63;67.61;;
70454;Laerm;57915;47.174;14.680;2023-03-31T05:42:39;65.12;51.74;75.97;;
70454;Laerm;57915;47.174;14.680;2023-03-31T05:43:40;62.96;52.55;71.68;;
70454;Laerm;57915;47.174;14.680;2023-03-31T05:44:42;61.87;52.02;70.98;;
70454;Laerm;57915;47.174;14.680;2023-03-31T05:45:42;62.84;53.07;69.82;;
70454;Laerm;57915;47.174;14.680;2023-03-31T05:46:44;59.88;52.22;69.30;;
70454;Laerm;57915;47.174;14.680;2023-03-31T05:47:45;64.70;52.26;71.44;;
70454;Laerm;57915;47.174;14.680;2023-03-31T05:48:47;64.16;55.05;72.25;;
70454;Laerm;57915;47.174;14.680;2023-03-31T05:49:48;62.37;53.05;71.22;;
70454;Laerm;57915;47.174;14.680;2023-03-31T05:50:50;61.53;53.56;70.53;;
70454;Laerm;57915;47.174;14.680;2023-03-31T05:51:50;63.73;53.83;71.56;;
70454;Laerm;57915;47.174;14.680;2023-03-31T05:52:52;63.07;51.31;70.79;;
70454;Laerm;57915;47.174;14.680;2023-03-31T05:53:52;64.11;51.51;73.84;;
70454;Laerm;57915;47.174;14.680;2023-03-31T05:54:54;60.01;51.27;69.51;;
70454;Laerm;57915;47.174;14.680;2023-03-31T05:55:57;60.87;51.29;70.99;;
70454;Laerm;57915;47.174;14.680;2023-03-31T05:56:59;64.21;52.42;73.21;;